createdAt,value
2023-02-08T00:00:51.072Z,103204.28
2023-02-08T00:05:44.114Z,103204.39
2023-02-08T00:10:39.616Z,103209.30
2023-02-08T00:15:36.044Z,103214.66
2023-02-08T00:20:35.298Z,103214.42
2023-02-08T00:25:41.404Z,103220.50
2023-02-08T00:30:37.796Z,103227.08
2023-02-08T00:35:42.692Z,103226.11
2023-02-08T00:40:38.239Z,103231.81
2023-02-08T00:45:34.294Z,103228.30
2023-02-08T00:50:30.457Z,103234.02
2023-02-08T00:55:41.060Z,103239.15
2023-02-08T01:00:46.899Z,103235.66
2023-02-08T01:11:34.213Z,103240.74
2023-02-08T01:16:48.659Z,103240.33
2023-02-08T01:21:55.033Z,103245.34
2023-02-08T01:26:48.678Z,103247.92
2023-02-08T01:31:46.205Z,103251.18
2023-02-08T01:37:01.941Z,103253.11
2023-02-08T01:42:29.223Z,103250.27
2023-02-08T01:47:25.732Z,103250.77
2023-02-08T01:52:45.168Z,103247.84
2023-02-08T01:57:46.840Z,103250.51
2023-02-08T02:02:53.585Z,103253.67
2023-02-08T02:08:00.943Z,103257.50
2023-02-08T02:13:10.094Z,103263.13
2023-02-08T02:18:28.796Z,103263.77
2023-02-08T02:23:59.618Z,103264.24
2023-02-08T02:29:18.102Z,103268.42
2023-02-08T02:34:56.755Z,103271.05
2023-02-08T02:40:18.374Z,103275.76
2023-02-08T02:45:56.225Z,103280.23
2023-02-08T02:51:32.054Z,103285.70
2023-02-08T02:56:49.301Z,103288.09
2023-02-08T03:02:00.546Z,103289.14
2023-02-08T03:13:35.938Z,103291.24
2023-02-08T03:19:15.975Z,103292.04
2023-02-08T03:24:50.863Z,103290.77
2023-02-08T03:30:11.474Z,103296.39
2023-02-08T03:35:16.678Z,103307.92
2023-02-08T03:40:29.202Z,103309.23
2023-02-08T03:45:50.802Z,103315.59
2023-02-08T03:51:11.992Z,103318.82
2023-02-08T04:07:25.687Z,103323.61
2023-02-08T04:12:36.255Z,103322.23
2023-02-08T04:17:32.447Z,103328.55
2023-02-08T04:22:44.332Z,103327.92
2023-02-08T04:27:48.833Z,103332.38
2023-02-08T04:33:12.843Z,103333.94
2023-02-08T04:38:14.290Z,103334.45
2023-02-08T04:43:08.491Z,103332.77
2023-02-08T04:48:07.072Z,103331.52
2023-02-08T04:52:59.933Z,103333.58
2023-02-08T04:57:53.069Z,103339.50
2023-02-08T05:02:46.701Z,103344.77
2023-02-08T05:07:39.470Z,103345.64
2023-02-08T05:12:32.481Z,103347.70
2023-02-08T05:17:25.303Z,103347.23
2023-02-08T05:22:18.130Z,103356.50
2023-02-08T05:27:11.026Z,103362.98
2023-02-08T05:32:05.423Z,103365.87
2023-02-08T05:36:58.385Z,103375.83
2023-02-08T05:41:51.250Z,103378.63
2023-02-08T05:46:45.191Z,103384.95
2023-02-08T05:51:37.980Z,103396.11
2023-02-08T05:56:31.643Z,103398.54
2023-02-08T06:01:24.445Z,103402.75
2023-02-08T06:06:17.221Z,103405.46
2023-02-08T06:11:10.166Z,103409.96
2023-02-08T06:16:12.239Z,103412.64
2023-02-08T06:21:05.545Z,103422.88
2023-02-08T06:25:58.508Z,103427.24
2023-02-08T06:30:52.634Z,103429.55
2023-02-08T06:35:48.928Z,103430.45
2023-02-08T06:40:42.554Z,103432.57
2023-02-08T06:45:35.667Z,103434.95
2023-02-08T06:50:28.820Z,103438.42
2023-02-08T06:55:21.636Z,103439.34
2023-02-08T07:00:15.131Z,103447.13
2023-02-08T07:05:09.550Z,103452.56
2023-02-08T07:10:02.764Z,103459.48
2023-02-08T07:14:55.537Z,103467.02
2023-02-08T07:19:48.341Z,103478.06
2023-02-08T07:24:42.726Z,103484.23
2023-02-08T07:29:37.932Z,103482.97
2023-02-08T07:34:32.169Z,103479.74
2023-02-08T07:39:25.355Z,103481.46
2023-02-08T07:44:18.216Z,103480.59
2023-02-08T07:49:11.412Z,103478.42
2023-02-08T07:54:04.796Z,103478.24
2023-02-08T07:58:57.725Z,103474.73
2023-02-08T08:03:52.055Z,103474.30
2023-02-08T08:08:47.630Z,103481.64
2023-02-08T08:13:40.539Z,103488.54
2023-02-08T08:18:33.365Z,103490.07
2023-02-08T08:23:28.484Z,103487.98
2023-02-08T08:28:25.015Z,103492.06
2023-02-08T08:33:17.961Z,103491.50
2023-02-08T08:38:11.335Z,103496.60
2023-02-08T08:43:04.454Z,103498.66
2023-02-08T08:47:57.340Z,103496.89
2023-02-08T08:52:52.921Z,103498.11
2023-02-08T08:57:45.821Z,103497.56
2023-02-08T09:02:39.839Z,103494.05
2023-02-08T09:07:36.457Z,103495.56
2023-02-08T09:12:30.129Z,103498.73
2023-02-08T09:17:23.139Z,103501.30
2023-02-08T09:22:18.880Z,103503.89
2023-02-08T09:27:11.831Z,103505.17
2023-02-08T09:32:05.373Z,103506.90
2023-02-08T09:36:58.273Z,103507.73
2023-02-08T09:42:08.194Z,103509.36
2023-02-08T09:47:21.495Z,103505.39
2023-02-08T09:52:22.494Z,103503.02
2023-02-08T09:57:19.616Z,103506.52
2023-02-08T10:02:45.128Z,103510.83
2023-02-08T10:07:38.449Z,103509.27
2023-02-08T10:12:55.952Z,103509.67
2023-02-08T10:18:06.408Z,103509.69
2023-02-08T10:23:05.066Z,103509.01
2023-02-08T10:28:32.069Z,103506.75
2023-02-08T10:33:43.945Z,103508.03
2023-02-08T10:38:46.887Z,103503.27
2023-02-08T10:43:47.472Z,103500.83
2023-02-08T10:49:01.977Z,103500.16
2023-02-08T10:53:55.366Z,103495.91
2023-02-08T10:58:48.256Z,103496.26
2023-02-08T11:04:11.395Z,103497.90
2023-02-08T11:09:06.980Z,103489.42
2023-02-08T11:14:18.594Z,103484.96
2023-02-08T11:19:26.204Z,103488.16
2023-02-08T11:24:31.004Z,103492.00
2023-02-08T11:29:27.267Z,103485.95
2023-02-08T11:34:26.344Z,103485.20
2023-02-08T11:39:40.861Z,103481.20
2023-02-08T11:44:44.828Z,103481.40
2023-02-08T11:49:43.288Z,103477.11
2023-02-08T11:54:42.895Z,103476.77
2023-02-08T11:59:35.789Z,103472.60
2023-02-08T12:04:28.608Z,103471.52
2023-02-08T12:09:48.793Z,103467.02
2023-02-08T12:15:01.993Z,103462.50
2023-02-08T12:20:13.616Z,103471.05
2023-02-08T12:25:42.561Z,103468.65
2023-02-08T12:30:43.719Z,103464.17
2023-02-08T12:36:18.341Z,103455.79
2023-02-08T12:41:30.237Z,103456.02
2023-02-08T12:46:42.474Z,103447.92
2023-02-08T12:52:01.799Z,103444.56
2023-02-08T12:57:02.450Z,103443.05
2023-02-08T13:02:01.937Z,103432.76
2023-02-08T13:06:59.896Z,103424.77
2023-02-08T13:12:06.367Z,103423.79
2023-02-08T13:17:05.982Z,103414.16
2023-02-08T13:22:00.944Z,103412.96
2023-02-08T13:26:54.992Z,103405.34
2023-02-08T13:32:00.328Z,103405.05
2023-02-08T13:37:16.582Z,103407.80
2023-02-08T13:42:48.553Z,103400.71
2023-02-08T13:47:47.345Z,103397.56
2023-02-08T13:52:48.028Z,103399.61
2023-02-08T13:57:56.699Z,103399.02
2023-02-08T14:03:20.917Z,103401.83
2023-02-08T14:08:45.844Z,103398.83
2023-02-08T14:13:49.114Z,103399.16
2023-02-08T14:18:53.067Z,103410.17
2023-02-08T14:23:46.000Z,103408.58
2023-02-08T14:28:45.024Z,103405.48
2023-02-08T14:33:41.939Z,103401.09
2023-02-08T14:38:52.103Z,103402.00
2023-02-08T14:43:48.857Z,103402.13
2023-02-08T14:48:51.018Z,103406.95
2023-02-08T14:53:45.118Z,103407.85
2023-02-08T14:58:42.633Z,103411.87
2023-02-08T15:03:36.362Z,103412.10
2023-02-08T15:08:29.180Z,103412.23
2023-02-08T15:13:25.336Z,103413.95
2023-02-08T15:18:25.950Z,103414.66
2023-02-08T15:23:24.455Z,103413.17
2023-02-08T15:28:21.929Z,103412.56
2023-02-08T15:33:18.049Z,103415.87
2023-02-08T15:38:20.316Z,103410.60
2023-02-08T15:43:14.544Z,103403.89
2023-02-08T15:48:08.720Z,103401.52
2023-02-08T15:53:07.444Z,103402.52
2023-02-08T15:58:07.207Z,103393.66
2023-02-08T16:03:19.047Z,103389.73
2023-02-08T16:08:23.974Z,103389.02
2023-02-08T16:13:40.168Z,103389.38
2023-02-08T16:18:46.309Z,103384.61
2023-02-08T16:23:40.398Z,103377.18
2023-02-08T16:28:34.922Z,103381.58
2023-02-08T16:33:28.560Z,103381.55
2023-02-08T16:38:24.283Z,103376.73
2023-02-08T16:43:19.028Z,103379.59
2023-02-08T16:48:35.061Z,103382.77
2023-02-08T16:53:41.414Z,103379.15
2023-02-08T16:58:34.802Z,103374.27
2023-02-08T17:03:27.954Z,103365.69
2023-02-08T17:08:22.458Z,103366.02
2023-02-08T17:13:21.065Z,103366.98
2023-02-08T17:18:14.676Z,103357.92
2023-02-08T17:23:07.956Z,103352.77
2023-02-08T17:28:03.786Z,103343.13
2023-02-08T17:32:57.457Z,103338.40
2023-02-08T17:37:53.162Z,103339.69
2023-02-08T17:42:47.647Z,103343.64
2023-02-08T17:47:42.690Z,103341.12
2023-02-08T17:52:37.174Z,103343.48
2023-02-08T17:57:35.384Z,103348.95
2023-02-08T18:02:28.361Z,103342.98
2023-02-08T18:07:21.691Z,103346.13
2023-02-08T18:12:14.497Z,103349.80
2023-02-08T18:17:07.335Z,103342.84
2023-02-08T18:22:03.744Z,103351.43
2023-02-08T18:26:58.341Z,103346.16
2023-02-08T18:31:53.049Z,103347.50
2023-02-08T18:36:46.777Z,103347.48
2023-02-08T18:41:39.570Z,103346.57
2023-02-08T18:46:33.168Z,103346.08
2023-02-08T18:51:27.800Z,103339.93
2023-02-08T18:56:24.335Z,103343.06
2023-02-08T19:01:21.032Z,103337.69
2023-02-08T19:06:18.248Z,103341.05
2023-02-08T19:11:19.786Z,103339.67
2023-02-08T19:16:13.895Z,103345.80
2023-02-08T19:21:13.029Z,103343.80
2023-02-08T19:26:09.026Z,103338.63
2023-02-08T19:31:11.028Z,103339.13
2023-02-08T19:36:11.943Z,103337.48
2023-02-08T19:41:06.144Z,103330.19
2023-02-08T19:46:00.173Z,103320.29
2023-02-08T19:50:58.458Z,103318.90
2023-02-08T19:56:03.804Z,103318.48
2023-02-08T20:00:56.767Z,103315.59
2023-02-08T20:05:51.076Z,103318.76
2023-02-08T20:10:47.177Z,103315.10
2023-02-08T20:15:42.393Z,103312.20
2023-02-08T20:20:37.001Z,103310.64
2023-02-08T20:25:30.681Z,103318.23
2023-02-08T20:30:25.278Z,103318.74
2023-02-08T20:35:18.836Z,103317.58
2023-02-08T20:40:13.283Z,103310.86
2023-02-08T20:45:07.350Z,103301.77
2023-02-08T20:50:03.161Z,103297.45
2023-02-08T20:55:03.136Z,103302.35
2023-02-08T20:59:56.277Z,103302.48
2023-02-08T21:04:49.686Z,103300.36
2023-02-08T21:09:43.436Z,103294.55
2023-02-08T21:14:36.676Z,103291.27
2023-02-08T21:19:31.254Z,103290.10
2023-02-08T21:24:25.255Z,103281.23
2023-02-08T21:29:18.100Z,103283.10
2023-02-08T21:34:12.972Z,103283.41
2023-02-08T21:39:05.808Z,103286.20
2023-02-08T21:44:00.765Z,103291.52
2023-02-08T21:49:13.431Z,103285.23
2023-02-08T21:54:24.513Z,103280.16
2023-02-08T21:59:17.314Z,103283.66
2023-02-08T22:04:10.117Z,103284.42
2023-02-08T22:09:02.965Z,103276.94
2023-02-08T22:13:55.762Z,103272.73
2023-02-08T22:18:48.583Z,103268.89
2023-02-08T22:23:41.389Z,103257.04
2023-02-08T22:28:34.282Z,103247.02
2023-02-08T22:33:27.143Z,103241.02
2023-02-08T22:38:19.988Z,103238.84
2023-02-08T22:43:12.775Z,103235.20
2023-02-08T22:48:06.798Z,103228.06
2023-02-08T22:52:59.745Z,103218.09
2023-02-08T22:57:52.544Z,103204.59
2023-02-08T23:02:45.843Z,103200.05
2023-02-08T23:07:39.309Z,103197.84
2023-02-08T23:12:32.305Z,103186.66
2023-02-08T23:17:25.201Z,103179.79
2023-02-08T23:22:18.000Z,103172.27
2023-02-08T23:27:14.822Z,103174.49
2023-02-08T23:32:07.693Z,103172.73
2023-02-08T23:37:00.535Z,103179.09
2023-02-08T23:41:57.244Z,103171.77
2023-02-08T23:46:50.114Z,103159.83
2023-02-08T23:51:45.719Z,103151.53
2023-02-08T23:56:38.579Z,103155.63
